Terminal Aerodrome Forecast
Issued by NWS

Home | Current Version | Previous Version | Text Only | Print | Product List | Glossary On
Versions: 1 2 3 4 5 6 7 8 9 10 11 12 13 14 15 16
000
FTUS44 KLIX 281739
TAFMSY
TAF
KMSY 281739Z 2818/2918 06005KT P6SM SCT030 BKN050
     FM282300 13009KT P6SM BKN050
     FM290700 16005KT P6SM SCT250
     FM291500 11004KT P6SM SCT030 BKN250=

USA.gov is the U.S. government's official web portal to all federal, state and local government web resources and services.